sensor_id;sensor_type;location;lat;lon;timestamp;temperature;humidity
9393;DHT22;4736;52.508;13.422;2022-12-07T00:00:37;3.10;1.00
9393;DHT22;4736;52.508;13.422;2022-12-07T00:03:42;3.30;1.00
9393;DHT22;4736;52.508;13.422;2022-12-07T00:06:50;3.10;1.00
9393;DHT22;4736;52.508;13.422;2022-12-07T00:09:53;2.90;1.00
9393;DHT22;4736;52.508;13.422;2022-12-07T00:12:56;3.00;1.00
9393;DHT22;4736;52.508;13.422;2022-12-07T00:16:00;2.90;1.00
9393;DHT22;4736;52.508;13.422;2022-12-07T00:19:05;3.20;1.00
9393;DHT22;4736;52.508;13.422;2022-12-07T00:22:08;3.10;1.00
9393;DHT22;4736;52.508;13.422;2022-12-07T00:25:10;2.90;1.00
9393;DHT22;4736;52.508;13.422;2022-12-07T00:28:13;2.90;1.00
9393;DHT22;4736;52.508;13.422;2022-12-07T00:31:18;3.10;1.00
9393;DHT22;4736;52.508;13.422;2022-12-07T00:34:22;2.80;1.00
9393;DHT22;4736;52.508;13.422;2022-12-07T00:37:25;2.60;1.00
9393;DHT22;4736;52.508;13.422;2022-12-07T00:40:28;2.90;1.00
9393;DHT22;4736;52.508;13.422;2022-12-07T00:43:32;2.70;1.00
9393;DHT22;4736;52.508;13.422;2022-12-07T00:46:35;2.90;1.00
9393;DHT22;4736;52.508;13.422;2022-12-07T00:49:39;2.90;1.00
9393;DHT22;4736;52.508;13.422;2022-12-07T00:52:42;2.90;1.00
9393;DHT22;4736;52.508;13.422;2022-12-07T00:55:45;2.70;1.00
9393;DHT22;4736;52.508;13.422;2022-12-07T00:58:52;2.50;1.00
9393;DHT22;4736;52.508;13.422;2022-12-07T01:01:56;2.50;1.00
9393;DHT22;4736;52.508;13.422;2022-12-07T01:05:00;2.50;1.00
9393;DHT22;4736;52.508;13.422;2022-12-07T01:08:04;2.70;1.00
9393;DHT22;4736;52.508;13.422;2022-12-07T01:11:09;2.80;1.00
9393;DHT22;4736;52.508;13.422;2022-12-07T01:14:12;2.70;1.00
9393;DHT22;4736;52.508;13.422;2022-12-07T01:17:15;2.50;1.00
9393;DHT22;4736;52.508;13.422;2022-12-07T01:20:19;2.50;1.00
9393;DHT22;4736;52.508;13.422;2022-12-07T01:23:22;2.20;1.00
9393;DHT22;4736;52.508;13.422;2022-12-07T01:26:26;2.20;1.00
9393;DHT22;4736;52.508;13.422;2022-12-07T01:29:29;2.50;1.00
9393;DHT22;4736;52.508;13.422;2022-12-07T01:32:32;2.40;1.00
9393;DHT22;4736;52.508;13.422;2022-12-07T01:35:36;2.30;1.00
9393;DHT22;4736;52.508;13.422;2022-12-07T01:38:39;2.20;1.00
9393;DHT22;4736;52.508;13.422;2022-12-07T01:41:42;2.30;1.00
9393;DHT22;4736;52.508;13.422;2022-12-07T01:48:25;2.60;1.00
9393;DHT22;4736;52.508;13.422;2022-12-07T01:51:30;2.20;1.00
9393;DHT22;4736;52.508;13.422;2022-12-07T01:54:34;2.30;1.00
9393;DHT22;4736;52.508;13.422;2022-12-07T01:57:40;2.20;1.00
9393;DHT22;4736;52.508;13.422;2022-12-07T02:00:44;2.60;1.00
9393;DHT22;4736;52.508;13.422;2022-12-07T02:03:48;2.30;1.00
9393;DHT22;4736;52.508;13.422;2022-12-07T02:06:53;2.70;1.00
9393;DHT22;4736;52.508;13.422;2022-12-07T02:09:57;2.30;1.00
9393;DHT22;4736;52.508;13.422;2022-12-07T02:13:03;2.40;1.00
9393;DHT22;4736;52.508;13.422;2022-12-07T02:16:18;2.70;1.00
9393;DHT22;4736;52.508;13.422;2022-12-07T02:20:11;2.30;1.00
9393;DHT22;4736;52.508;13.422;2022-12-07T02:27:18;2.10;1.00
9393;DHT22;4736;52.508;13.422;2022-12-07T02:30:31;2.50;1.00
9393;DHT22;4736;52.508;13.422;2022-12-07T02:33:39;2.20;1.00
9393;DHT22;4736;52.508;13.422;2022-12-07T02:36:46;2.20;1.00
9393;DHT22;4736;52.508;13.422;2022-12-07T02:39:56;2.30;1.00
9393;DHT22;4736;52.508;13.422;2022-12-07T02:43:14;2.10;1.00
9393;DHT22;4736;52.508;13.422;2022-12-07T02:46:23;2.30;1.00
9393;DHT22;4736;52.508;13.422;2022-12-07T02:49:27;2.10;1.00
9393;DHT22;4736;52.508;13.422;2022-12-07T02:52:31;2.40;1.00
9393;DHT22;4736;52.508;13.422;2022-12-07T02:55:38;2.30;1.00
9393;DHT22;4736;52.508;13.422;2022-12-07T02:58:53;2.30;1.00
9393;DHT22;4736;52.508;13.422;2022-12-07T03:02:11;2.20;1.00
9393;DHT22;4736;52.508;13.422;2022-12-07T03:05:35;2.20;1.00
9393;DHT22;4736;52.508;13.422;2022-12-07T03:08:50;2.30;1.00
9393;DHT22;4736;52.508;13.422;2022-12-07T03:12:01;2.10;1.00
9393;DHT22;4736;52.508;13.422;2022-12-07T03:15:11;2.30;1.00
9393;DHT22;4736;52.508;13.422;2022-12-07T03:18:19;2.10;1.00
9393;DHT22;4736;52.508;13.422;2022-12-07T03:21:26;2.30;1.00
9393;DHT22;4736;52.508;13.422;2022-12-07T03:24:33;2.00;1.00
9393;DHT22;4736;52.508;13.422;2022-12-07T03:27:42;2.00;1.00
9393;DHT22;4736;52.508;13.422;2022-12-07T03:30:50;2.20;1.00
9393;DHT22;4736;52.508;13.422;2022-12-07T03:34:02;2.40;1.00
9393;DHT22;4736;52.508;13.422;2022-12-07T03:37:11;2.20;1.00
9393;DHT22;4736;52.508;13.422;2022-12-07T03:40:21;2.10;1.00
9393;DHT22;4736;52.508;13.422;2022-12-07T03:43:25;2.10;1.00
9393;DHT22;4736;52.508;13.422;2022-12-07T03:46:36;2.20;1.00
9393;DHT22;4736;52.508;13.422;2022-12-07T03:49:50;2.40;1.00
9393;DHT22;4736;52.508;13.422;2022-12-07T03:52:56;2.30;1.00
9393;DHT22;4736;52.508;13.422;2022-12-07T03:56:01;2.30;1.00
9393;DHT22;4736;52.508;13.422;2022-12-07T03:59:05;2.00;1.00
9393;DHT22;4736;52.508;13.422;2022-12-07T04:02:11;2.30;1.00
9393;DHT22;4736;52.508;13.422;2022-12-07T04:05:17;2.20;1.00
9393;DHT22;4736;52.508;13.422;2022-12-07T04:08:20;2.10;1.00
9393;DHT22;4736;52.508;13.422;2022-12-07T04:11:23;2.20;1.00
9393;DHT22;4736;52.508;13.422;2022-12-07T04:14:26;2.10;1.00
9393;DHT22;4736;52.508;13.422;2022-12-07T04:17:29;2.20;1.00
9393;DHT22;4736;52.508;13.422;2022-12-07T04:20:33;2.00;1.00
9393;DHT22;4736;52.508;13.422;2022-12-07T04:23:36;1.90;1.00
9393;DHT22;4736;52.508;13.422;2022-12-07T04:26:39;2.00;1.00
9393;DHT22;4736;52.508;13.422;2022-12-07T04:29:43;1.70;1.00
9393;DHT22;4736;52.508;13.422;2022-12-07T04:32:46;1.90;1.00
9393;DHT22;4736;52.508;13.422;2022-12-07T04:35:50;2.10;1.00
9393;DHT22;4736;52.508;13.422;2022-12-07T04:38:53;2.00;1.00
9393;DHT22;4736;52.508;13.422;2022-12-07T04:41:57;1.90;1.00
9393;DHT22;4736;52.508;13.422;2022-12-07T04:45:00;1.90;1.00
9393;DHT22;4736;52.508;13.422;2022-12-07T04:48:04;2.00;1.00
9393;DHT22;4736;52.508;13.422;2022-12-07T04:51:08;1.80;1.00
9393;DHT22;4736;52.508;13.422;2022-12-07T04:54:12;1.90;1.00
9393;DHT22;4736;52.508;13.422;2022-12-07T04:57:15;2.10;1.00
9393;DHT22;4736;52.508;13.422;2022-12-07T05:00:18;2.00;1.00
9393;DHT22;4736;52.508;13.422;2022-12-07T05:03:21;2.00;1.00
9393;DHT22;4736;52.508;13.422;2022-12-07T05:06:26;1.90;1.00
9393;DHT22;4736;52.508;13.422;2022-12-07T05:09:29;2.00;1.00
9393;DHT22;4736;52.508;13.422;2022-12-07T05:12:32;2.20;1.00
9393;DHT22;4736;52.508;13.422;2022-12-07T05:15:35;2.20;1.00
9393;DHT22;4736;52.508;13.422;2022-12-07T05:18:38;2.10;1.00
9393;DHT22;4736;52.508;13.422;2022-12-07T05:21:42;2.30;1.00
9393;DHT22;4736;52.508;13.422;2022-12-07T05:24:45;2.20;1.00
9393;DHT22;4736;52.508;13.422;2022-12-07T05:27:48;2.30;1.00
9393;DHT22;4736;52.508;13.422;2022-12-07T05:30:51;2.10;1.00
9393;DHT22;4736;52.508;13.422;2022-12-07T05:34:00;2.20;1.00
9393;DHT22;4736;52.508;13.422;2022-12-07T05:37:04;2.50;1.00
9393;DHT22;4736;52.508;13.422;2022-12-07T05:40:08;2.30;1.00
9393;DHT22;4736;52.508;13.422;2022-12-07T05:43:12;2.40;1.00
9393;DHT22;4736;52.508;13.422;2022-12-07T05:46:15;2.20;1.00
9393;DHT22;4736;52.508;13.422;2022-12-07T05:49:18;2.30;1.00
9393;DHT22;4736;52.508;13.422;2022-12-07T05:52:22;2.30;1.00
9393;DHT22;4736;52.508;13.422;2022-12-07T05:55:25;2.30;1.00
9393;DHT22;4736;52.508;13.422;2022-12-07T05:58:28;2.50;1.00
9393;DHT22;4736;52.508;13.422;2022-12-07T06:01:49;2.70;1.00
9393;DHT22;4736;52.508;13.422;2022-12-07T06:04:52;2.50;1.00
9393;DHT22;4736;52.508;13.422;2022-12-07T06:07:56;2.70;1.00
9393;DHT22;4736;52.508;13.422;2022-12-07T06:11:06;2.60;1.00
9393;DHT22;4736;52.508;13.422;2022-12-07T06:14:26;2.60;1.00
9393;DHT22;4736;52.508;13.422;2022-12-07T06:17:29;2.60;1.00
9393;DHT22;4736;52.508;13.422;2022-12-07T06:23:36;2.80;1.00
9393;DHT22;4736;52.508;13.422;2022-12-07T06:26:39;3.10;1.00
9393;DHT22;4736;52.508;13.422;2022-12-07T06:29:42;2.90;1.00
9393;DHT22;4736;52.508;13.422;2022-12-07T06:32:45;3.00;1.00
9393;DHT22;4736;52.508;13.422;2022-12-07T06:35:48;2.70;1.00
9393;DHT22;4736;52.508;13.422;2022-12-07T06:38:53;3.00;1.00
9393;DHT22;4736;52.508;13.422;2022-12-07T06:41:56;3.10;1.00
9393;DHT22;4736;52.508;13.422;2022-12-07T06:44:59;2.80;1.00
9393;DHT22;4736;52.508;13.422;2022-12-07T06:48:02;3.20;1.00
9393;DHT22;4736;52.508;13.422;2022-12-07T06:51:05;2.90;1.00
9393;DHT22;4736;52.508;13.422;2022-12-07T06:54:11;2.90;1.00
9393;DHT22;4736;52.508;13.422;2022-12-07T06:57:14;3.20;1.00
9393;DHT22;4736;52.508;13.422;2022-12-07T07:00:18;3.20;1.00
9393;DHT22;4736;52.508;13.422;2022-12-07T07:03:23;3.00;1.00
9393;DHT22;4736;52.508;13.422;2022-12-07T07:06:26;3.00;1.00
9393;DHT22;4736;52.508;13.422;2022-12-07T07:09:30;3.20;1.00
9393;DHT22;4736;52.508;13.422;2022-12-07T07:12:33;3.20;1.00
9393;DHT22;4736;52.508;13.422;2022-12-07T07:15:38;3.10;1.00
9393;DHT22;4736;52.508;13.422;2022-12-07T07:18:41;3.30;1.00
9393;DHT22;4736;52.508;13.422;2022-12-07T07:21:44;3.50;1.00
9393;DHT22;4736;52.508;13.422;2022-12-07T07:24:48;3.50;1.00
9393;DHT22;4736;52.508;13.422;2022-12-07T07:27:51;3.70;1.00
9393;DHT22;4736;52.508;13.422;2022-12-07T07:30:54;3.70;1.00
9393;DHT22;4736;52.508;13.422;2022-12-07T07:33:57;3.40;1.00
9393;DHT22;4736;52.508;13.422;2022-12-07T07:37:00;3.80;1.00
9393;DHT22;4736;52.508;13.422;2022-12-07T07:40:06;3.50;1.00
9393;DHT22;4736;52.508;13.422;2022-12-07T07:43:09;3.80;1.00
9393;DHT22;4736;52.508;13.422;2022-12-07T07:46:12;3.80;1.00
9393;DHT22;4736;52.508;13.422;2022-12-07T07:49:15;3.90;1.00
9393;DHT22;4736;52.508;13.422;2022-12-07T07:52:18;3.70;1.00
9393;DHT22;4736;52.508;13.422;2022-12-07T07:55:22;3.90;1.00
9393;DHT22;4736;52.508;13.422;2022-12-07T07:58:25;3.50;1.00
9393;DHT22;4736;52.508;13.422;2022-12-07T08:01:28;3.90;1.00
9393;DHT22;4736;52.508;13.422;2022-12-07T08:04:31;3.80;1.00
9393;DHT22;4736;52.508;13.422;2022-12-07T08:07:34;3.90;1.00
9393;DHT22;4736;52.508;13.422;2022-12-07T08:10:39;3.70;1.00
9393;DHT22;4736;52.508;13.422;2022-12-07T08:13:42;3.70;1.00
9393;DHT22;4736;52.508;13.422;2022-12-07T08:16:47;3.80;1.00
9393;DHT22;4736;52.508;13.422;2022-12-07T08:19:50;3.90;1.00
9393;DHT22;4736;52.508;13.422;2022-12-07T08:22:53;3.80;1.00
9393;DHT22;4736;52.508;13.422;2022-12-07T08:26:01;3.90;1.00
9393;DHT22;4736;52.508;13.422;2022-12-07T08:29:04;4.00;1.00
9393;DHT22;4736;52.508;13.422;2022-12-07T08:32:07;4.10;1.00
9393;DHT22;4736;52.508;13.422;2022-12-07T08:35:10;4.20;1.00
9393;DHT22;4736;52.508;13.422;2022-12-07T08:38:14;4.10;1.00
9393;DHT22;4736;52.508;13.422;2022-12-07T08:41:19;4.10;1.00
9393;DHT22;4736;52.508;13.422;2022-12-07T08:44:21;4.10;1.00
9393;DHT22;4736;52.508;13.422;2022-12-07T08:47:25;4.00;1.00
9393;DHT22;4736;52.508;13.422;2022-12-07T08:50:28;4.20;1.00
9393;DHT22;4736;52.508;13.422;2022-12-07T08:53:31;4.10;1.00
9393;DHT22;4736;52.508;13.422;2022-12-07T08:56:37;4.10;1.00
9393;DHT22;4736;52.508;13.422;2022-12-07T08:59:40;3.90;1.00
9393;DHT22;4736;52.508;13.422;2022-12-07T09:02:43;3.90;1.00
9393;DHT22;4736;52.508;13.422;2022-12-07T09:05:46;4.00;1.00
9393;DHT22;4736;52.508;13.422;2022-12-07T09:08:52;4.20;1.00
9393;DHT22;4736;52.508;13.422;2022-12-07T09:11:58;3.90;1.00
9393;DHT22;4736;52.508;13.422;2022-12-07T09:15:01;4.40;1.00
9393;DHT22;4736;52.508;13.422;2022-12-07T09:18:04;4.10;1.00
9393;DHT22;4736;52.508;13.422;2022-12-07T09:21:07;4.30;1.00
9393;DHT22;4736;52.508;13.422;2022-12-07T09:24:11;4.10;1.00
9393;DHT22;4736;52.508;13.422;2022-12-07T09:27:16;4.30;1.00
9393;DHT22;4736;52.508;13.422;2022-12-07T09:30:20;4.10;1.00
9393;DHT22;4736;52.508;13.422;2022-12-07T09:33:23;4.00;1.00
9393;DHT22;4736;52.508;13.422;2022-12-07T09:36:26;4.30;1.00
9393;DHT22;4736;52.508;13.422;2022-12-07T09:39:30;4.30;1.00
9393;DHT22;4736;52.508;13.422;2022-12-07T09:42:36;4.10;1.00
9393;DHT22;4736;52.508;13.422;2022-12-07T09:45:42;3.90;1.00
9393;DHT22;4736;52.508;13.422;2022-12-07T09:48:50;4.10;1.00
9393;DHT22;4736;52.508;13.422;2022-12-07T09:52:01;4.00;1.00
9393;DHT22;4736;52.508;13.422;2022-12-07T09:55:09;4.10;1.00
9393;DHT22;4736;52.508;13.422;2022-12-07T09:58:19;3.80;1.00
9393;DHT22;4736;52.508;13.422;2022-12-07T10:01:23;4.00;1.00
9393;DHT22;4736;52.508;13.422;2022-12-07T10:04:26;4.10;1.00
9393;DHT22;4736;52.508;13.422;2022-12-07T10:07:31;4.00;1.00
9393;DHT22;4736;52.508;13.422;2022-12-07T10:10:35;4.10;1.00
9393;DHT22;4736;52.508;13.422;2022-12-07T10:13:43;3.70;1.00
9393;DHT22;4736;52.508;13.422;2022-12-07T10:16:46;3.80;1.00
9393;DHT22;4736;52.508;13.422;2022-12-07T10:19:49;4.10;1.00
9393;DHT22;4736;52.508;13.422;2022-12-07T10:22:58;3.90;1.00
9393;DHT22;4736;52.508;13.422;2022-12-07T10:26:20;3.80;1.00
9393;DHT22;4736;52.508;13.422;2022-12-07T10:29:30;3.90;1.00
9393;DHT22;4736;52.508;13.422;2022-12-07T10:32:34;3.90;1.00
9393;DHT22;4736;52.508;13.422;2022-12-07T10:35:43;3.80;1.00
9393;DHT22;4736;52.508;13.422;2022-12-07T10:38:48;3.70;1.00
9393;DHT22;4736;52.508;13.422;2022-12-07T10:41:55;3.90;1.00
9393;DHT22;4736;52.508;13.422;2022-12-07T10:45:09;3.70;1.00
9393;DHT22;4736;52.508;13.422;2022-12-07T10:48:21;3.70;1.00
9393;DHT22;4736;52.508;13.422;2022-12-07T10:51:32;4.00;1.00
9393;DHT22;4736;52.508;13.422;2022-12-07T10:54:44;3.80;1.00
9393;DHT22;4736;52.508;13.422;2022-12-07T10:58:02;4.10;1.00
9393;DHT22;4736;52.508;13.422;2022-12-07T11:01:16;3.80;1.00
9393;DHT22;4736;52.508;13.422;2022-12-07T11:04:31;3.80;1.00
9393;DHT22;4736;52.508;13.422;2022-12-07T11:07:45;4.10;1.00
9393;DHT22;4736;52.508;13.422;2022-12-07T11:11:01;4.00;1.00
9393;DHT22;4736;52.508;13.422;2022-12-07T11:14:18;4.10;1.00
9393;DHT22;4736;52.508;13.422;2022-12-07T11:17:32;4.20;1.00
9393;DHT22;4736;52.508;13.422;2022-12-07T11:20:41;4.10;1.00
9393;DHT22;4736;52.508;13.422;2022-12-07T11:23:51;4.10;1.00
9393;DHT22;4736;52.508;13.422;2022-12-07T11:27:07;4.30;1.00
9393;DHT22;4736;52.508;13.422;2022-12-07T11:30:17;4.00;1.00
9393;DHT22;4736;52.508;13.422;2022-12-07T11:33:29;4.20;1.00
9393;DHT22;4736;52.508;13.422;2022-12-07T11:36:38;4.00;1.00
9393;DHT22;4736;52.508;13.422;2022-12-07T11:39:47;4.10;1.00
9393;DHT22;4736;52.508;13.422;2022-12-07T11:42:57;4.30;1.00
9393;DHT22;4736;52.508;13.422;2022-12-07T11:46:05;4.10;1.00
9393;DHT22;4736;52.508;13.422;2022-12-07T11:49:15;4.10;1.00
9393;DHT22;4736;52.508;13.422;2022-12-07T11:52:26;4.10;1.00
9393;DHT22;4736;52.508;13.422;2022-12-07T11:55:38;4.30;1.00
9393;DHT22;4736;52.508;13.422;2022-12-07T11:58:48;4.20;1.00
9393;DHT22;4736;52.508;13.422;2022-12-07T12:01:55;4.10;1.00
9393;DHT22;4736;52.508;13.422;2022-12-07T12:05:05;4.30;1.00
9393;DHT22;4736;52.508;13.422;2022-12-07T12:08:17;4.30;1.00
9393;DHT22;4736;52.508;13.422;2022-12-07T12:11:53;4.10;1.00
9393;DHT22;4736;52.508;13.422;2022-12-07T12:15:27;4.30;1.00
9393;DHT22;4736;52.508;13.422;2022-12-07T12:18:49;4.30;1.00
9393;DHT22;4736;52.508;13.422;2022-12-07T12:21:59;4.40;1.00
9393;DHT22;4736;52.508;13.422;2022-12-07T12:25:07;4.50;1.00
9393;DHT22;4736;52.508;13.422;2022-12-07T12:28:23;4.40;1.00
9393;DHT22;4736;52.508;13.422;2022-12-07T12:31:36;4.40;1.00
9393;DHT22;4736;52.508;13.422;2022-12-07T12:34:57;4.40;1.00
9393;DHT22;4736;52.508;13.422;2022-12-07T12:42:00;4.70;1.00
9393;DHT22;4736;52.508;13.422;2022-12-07T12:45:20;4.40;1.00
9393;DHT22;4736;52.508;13.422;2022-12-07T12:48:29;4.40;1.00
9393;DHT22;4736;52.508;13.422;2022-12-07T12:51:37;4.60;1.00
9393;DHT22;4736;52.508;13.422;2022-12-07T12:54:58;4.40;1.00
9393;DHT22;4736;52.508;13.422;2022-12-07T12:58:26;4.60;1.00
9393;DHT22;4736;52.508;13.422;2022-12-07T13:01:42;4.40;1.00
9393;DHT22;4736;52.508;13.422;2022-12-07T13:04:55;4.50;1.00
9393;DHT22;4736;52.508;13.422;2022-12-07T13:08:00;4.60;1.00
9393;DHT22;4736;52.508;13.422;2022-12-07T13:11:17;4.80;1.00
9393;DHT22;4736;52.508;13.422;2022-12-07T13:14:42;4.60;1.00
9393;DHT22;4736;52.508;13.422;2022-12-07T13:17:57;4.70;1.00
9393;DHT22;4736;52.508;13.422;2022-12-07T13:21:02;4.60;1.00
9393;DHT22;4736;52.508;13.422;2022-12-07T13:24:09;4.60;1.00
9393;DHT22;4736;52.508;13.422;2022-12-07T13:27:14;4.70;1.00
9393;DHT22;4736;52.508;13.422;2022-12-07T13:30:21;4.70;1.00
9393;DHT22;4736;52.508;13.422;2022-12-07T13:33:28;4.60;1.00
9393;DHT22;4736;52.508;13.422;2022-12-07T13:36:33;4.70;1.00
9393;DHT22;4736;52.508;13.422;2022-12-07T13:39:46;4.80;1.00
9393;DHT22;4736;52.508;13.422;2022-12-07T13:42:57;4.80;1.00
9393;DHT22;4736;52.508;13.422;2022-12-07T13:46:02;4.70;1.00
9393;DHT22;4736;52.508;13.422;2022-12-07T13:49:19;4.70;1.00
9393;DHT22;4736;52.508;13.422;2022-12-07T13:52:24;4.60;1.00
9393;DHT22;4736;52.508;13.422;2022-12-07T13:55:29;4.70;1.00
9393;DHT22;4736;52.508;13.422;2022-12-07T13:58:33;4.70;1.00
9393;DHT22;4736;52.508;13.422;2022-12-07T14:01:38;4.60;1.00
9393;DHT22;4736;52.508;13.422;2022-12-07T14:04:41;4.70;1.00
9393;DHT22;4736;52.508;13.422;2022-12-07T14:07:49;4.80;1.00
9393;DHT22;4736;52.508;13.422;2022-12-07T14:10:56;4.90;1.00
9393;DHT22;4736;52.508;13.422;2022-12-07T14:14:01;4.70;1.00
9393;DHT22;4736;52.508;13.422;2022-12-07T14:17:12;4.60;1.00
9393;DHT22;4736;52.508;13.422;2022-12-07T14:20:32;4.70;1.00
9393;DHT22;4736;52.508;13.422;2022-12-07T14:23:36;4.50;1.00
9393;DHT22;4736;52.508;13.422;2022-12-07T14:26:39;4.60;1.00
9393;DHT22;4736;52.508;13.422;2022-12-07T14:29:42;4.40;1.00
9393;DHT22;4736;52.508;13.422;2022-12-07T14:32:48;4.60;1.00
9393;DHT22;4736;52.508;13.422;2022-12-07T14:35:53;4.60;1.00
9393;DHT22;4736;52.508;13.422;2022-12-07T14:38:57;4.50;1.00
9393;DHT22;4736;52.508;13.422;2022-12-07T14:42:01;4.50;1.00
9393;DHT22;4736;52.508;13.422;2022-12-07T14:45:06;4.50;1.00
9393;DHT22;4736;52.508;13.422;2022-12-07T14:48:15;4.50;1.00
9393;DHT22;4736;52.508;13.422;2022-12-07T14:51:39;4.40;1.00
9393;DHT22;4736;52.508;13.422;2022-12-07T14:55:03;4.30;1.00
9393;DHT22;4736;52.508;13.422;2022-12-07T14:58:11;4.20;1.00
9393;DHT22;4736;52.508;13.422;2022-12-07T15:01:15;4.20;1.00
9393;DHT22;4736;52.508;13.422;2022-12-07T15:04:19;4.30;1.00
9393;DHT22;4736;52.508;13.422;2022-12-07T15:07:23;4.10;1.00
9393;DHT22;4736;52.508;13.422;2022-12-07T15:10:28;4.00;1.00
9393;DHT22;4736;52.508;13.422;2022-12-07T15:13:33;4.30;1.00
9393;DHT22;4736;52.508;13.422;2022-12-07T15:16:53;3.90;1.00
9393;DHT22;4736;52.508;13.422;2022-12-07T15:20:18;3.80;1.00
9393;DHT22;4736;52.508;13.422;2022-12-07T15:23:21;4.00;1.00
9393;DHT22;4736;52.508;13.422;2022-12-07T15:26:24;4.10;1.00
9393;DHT22;4736;52.508;13.422;2022-12-07T15:29:27;4.00;1.00
9393;DHT22;4736;52.508;13.422;2022-12-07T15:32:30;4.10;1.00
9393;DHT22;4736;52.508;13.422;2022-12-07T15:35:38;3.70;1.00
9393;DHT22;4736;52.508;13.422;2022-12-07T15:38:41;3.90;1.00
9393;DHT22;4736;52.508;13.422;2022-12-07T15:42:04;3.70;1.00
9393;DHT22;4736;52.508;13.422;2022-12-07T15:45:08;3.90;1.00
9393;DHT22;4736;52.508;13.422;2022-12-07T15:48:10;3.70;1.00
9393;DHT22;4736;52.508;13.422;2022-12-07T15:51:31;3.80;1.00
9393;DHT22;4736;52.508;13.422;2022-12-07T15:54:34;3.90;1.00
9393;DHT22;4736;52.508;13.422;2022-12-07T15:57:39;4.00;1.00
9393;DHT22;4736;52.508;13.422;2022-12-07T16:00:42;4.00;1.00
9393;DHT22;4736;52.508;13.422;2022-12-07T16:03:45;4.10;1.00
9393;DHT22;4736;52.508;13.422;2022-12-07T16:06:50;3.90;1.00
9393;DHT22;4736;52.508;13.422;2022-12-07T16:09:53;3.90;1.00
9393;DHT22;4736;52.508;13.422;2022-12-07T16:12:56;3.90;1.00
9393;DHT22;4736;52.508;13.422;2022-12-07T16:16:02;3.80;1.00
9393;DHT22;4736;52.508;13.422;2022-12-07T16:19:06;4.00;1.00
9393;DHT22;4736;52.508;13.422;2022-12-07T16:22:10;3.80;1.00
9393;DHT22;4736;52.508;13.422;2022-12-07T16:25:13;4.00;1.00
9393;DHT22;4736;52.508;13.422;2022-12-07T16:28:16;3.80;1.00
9393;DHT22;4736;52.508;13.422;2022-12-07T16:31:21;3.80;1.00
9393;DHT22;4736;52.508;13.422;2022-12-07T16:34:25;3.80;1.00
9393;DHT22;4736;52.508;13.422;2022-12-07T16:37:29;3.70;1.00
9393;DHT22;4736;52.508;13.422;2022-12-07T16:40:32;3.70;1.00
9393;DHT22;4736;52.508;13.422;2022-12-07T16:43:36;3.60;1.00
9393;DHT22;4736;52.508;13.422;2022-12-07T16:46:39;3.60;1.00
9393;DHT22;4736;52.508;13.422;2022-12-07T16:49:43;3.30;1.00
9393;DHT22;4736;52.508;13.422;2022-12-07T16:52:47;3.30;1.00
9393;DHT22;4736;52.508;13.422;2022-12-07T16:55:50;3.40;1.00
9393;DHT22;4736;52.508;13.422;2022-12-07T16:58:53;3.50;1.00
9393;DHT22;4736;52.508;13.422;2022-12-07T17:01:56;3.60;1.00
9393;DHT22;4736;52.508;13.422;2022-12-07T17:04:59;3.50;1.00
9393;DHT22;4736;52.508;13.422;2022-12-07T17:08:04;3.60;1.00
9393;DHT22;4736;52.508;13.422;2022-12-07T17:11:12;3.10;1.00
9393;DHT22;4736;52.508;13.422;2022-12-07T17:14:15;3.20;1.00
9393;DHT22;4736;52.508;13.422;2022-12-07T17:17:41;3.50;1.00
9393;DHT22;4736;52.508;13.422;2022-12-07T17:20:44;3.10;1.00
9393;DHT22;4736;52.508;13.422;2022-12-07T17:23:49;3.20;1.00
9393;DHT22;4736;52.508;13.422;2022-12-07T17:26:52;3.20;1.00
9393;DHT22;4736;52.508;13.422;2022-12-07T17:29:55;3.20;1.00
9393;DHT22;4736;52.508;13.422;2022-12-07T17:32:58;3.10;1.00
9393;DHT22;4736;52.508;13.422;2022-12-07T17:36:01;3.30;1.00
9393;DHT22;4736;52.508;13.422;2022-12-07T17:39:15;2.90;1.00
9393;DHT22;4736;52.508;13.422;2022-12-07T17:42:18;3.00;1.00
9393;DHT22;4736;52.508;13.422;2022-12-07T17:45:40;2.90;1.00
9393;DHT22;4736;52.508;13.422;2022-12-07T17:48:44;3.00;1.00
9393;DHT22;4736;52.508;13.422;2022-12-07T17:51:47;2.80;1.00
9393;DHT22;4736;52.508;13.422;2022-12-07T17:55:09;3.20;1.00
9393;DHT22;4736;52.508;13.422;2022-12-07T17:58:11;3.00;1.00
9393;DHT22;4736;52.508;13.422;2022-12-07T18:01:14;2.90;1.00
9393;DHT22;4736;52.508;13.422;2022-12-07T18:04:24;3.00;1.00
9393;DHT22;4736;52.508;13.422;2022-12-07T18:07:27;2.80;1.00
9393;DHT22;4736;52.508;13.422;2022-12-07T18:10:31;2.90;1.00
9393;DHT22;4736;52.508;13.422;2022-12-07T18:13:34;3.10;1.00
9393;DHT22;4736;52.508;13.422;2022-12-07T18:16:37;3.10;1.00
9393;DHT22;4736;52.508;13.422;2022-12-07T18:19:40;2.90;1.00
9393;DHT22;4736;52.508;13.422;2022-12-07T18:22:43;2.70;1.00
9393;DHT22;4736;52.508;13.422;2022-12-07T18:25:48;2.90;1.00
9393;DHT22;4736;52.508;13.422;2022-12-07T18:28:52;3.00;1.00
9393;DHT22;4736;52.508;13.422;2022-12-07T18:31:55;2.70;1.00
9393;DHT22;4736;52.508;13.422;2022-12-07T18:34:58;2.90;1.00
9393;DHT22;4736;52.508;13.422;2022-12-07T18:38:01;2.90;1.00
9393;DHT22;4736;52.508;13.422;2022-12-07T18:41:08;2.90;1.00
9393;DHT22;4736;52.508;13.422;2022-12-07T18:44:12;2.80;1.00
9393;DHT22;4736;52.508;13.422;2022-12-07T18:47:15;2.50;1.00
9393;DHT22;4736;52.508;13.422;2022-12-07T18:50:18;2.40;1.00
9393;DHT22;4736;52.508;13.422;2022-12-07T18:53:21;2.40;1.00
9393;DHT22;4736;52.508;13.422;2022-12-07T18:56:25;2.70;1.00
9393;DHT22;4736;52.508;13.422;2022-12-07T18:59:29;2.30;1.00
9393;DHT22;4736;52.508;13.422;2022-12-07T19:02:52;2.60;1.00
9393;DHT22;4736;52.508;13.422;2022-12-07T19:05:55;2.30;1.00
9393;DHT22;4736;52.508;13.422;2022-12-07T19:08:58;2.50;1.00
9393;DHT22;4736;52.508;13.422;2022-12-07T19:12:03;2.30;1.00
9393;DHT22;4736;52.508;13.422;2022-12-07T19:15:08;2.60;1.00
9393;DHT22;4736;52.508;13.422;2022-12-07T19:18:11;2.60;1.00
9393;DHT22;4736;52.508;13.422;2022-12-07T19:21:14;2.50;1.00
9393;DHT22;4736;52.508;13.422;2022-12-07T19:24:17;2.20;1.00
9393;DHT22;4736;52.508;13.422;2022-12-07T19:27:26;2.30;1.00
9393;DHT22;4736;52.508;13.422;2022-12-07T19:30:29;2.30;1.00
9393;DHT22;4736;52.508;13.422;2022-12-07T19:33:32;2.20;1.00
9393;DHT22;4736;52.508;13.422;2022-12-07T19:36:35;2.20;1.00
9393;DHT22;4736;52.508;13.422;2022-12-07T19:39:38;2.00;1.00
9393;DHT22;4736;52.508;13.422;2022-12-07T19:42:42;2.10;1.00
9393;DHT22;4736;52.508;13.422;2022-12-07T19:45:45;2.10;1.00
9393;DHT22;4736;52.508;13.422;2022-12-07T19:48:49;2.10;1.00
9393;DHT22;4736;52.508;13.422;2022-12-07T19:51:54;2.30;1.00
9393;DHT22;4736;52.508;13.422;2022-12-07T19:54:57;2.20;1.00
9393;DHT22;4736;52.508;13.422;2022-12-07T19:58:01;2.20;1.00
9393;DHT22;4736;52.508;13.422;2022-12-07T20:01:05;2.10;1.00
9393;DHT22;4736;52.508;13.422;2022-12-07T20:04:09;2.20;1.00
9393;DHT22;4736;52.508;13.422;2022-12-07T20:07:12;2.10;1.00
9393;DHT22;4736;52.508;13.422;2022-12-07T20:10:15;1.90;1.00
9393;DHT22;4736;52.508;13.422;2022-12-07T20:13:27;1.90;1.00
9393;DHT22;4736;52.508;13.422;2022-12-07T20:16:29;2.00;1.00
9393;DHT22;4736;52.508;13.422;2022-12-07T20:19:34;2.30;1.00
9393;DHT22;4736;52.508;13.422;2022-12-07T20:22:38;1.90;1.00
9393;DHT22;4736;52.508;13.422;2022-12-07T20:25:41;1.90;1.00
9393;DHT22;4736;52.508;13.422;2022-12-07T20:28:46;2.00;1.00
9393;DHT22;4736;52.508;13.422;2022-12-07T20:31:50;2.20;1.00
9393;DHT22;4736;52.508;13.422;2022-12-07T20:34:53;2.00;1.00
9393;DHT22;4736;52.508;13.422;2022-12-07T20:37:56;1.70;1.00
9393;DHT22;4736;52.508;13.422;2022-12-07T20:41:00;1.80;1.00
9393;DHT22;4736;52.508;13.422;2022-12-07T20:44:05;1.70;1.00
9393;DHT22;4736;52.508;13.422;2022-12-07T20:47:08;1.80;1.00
9393;DHT22;4736;52.508;13.422;2022-12-07T20:50:11;2.00;1.00